^^
TXWeather Station Historical Data
Daily Summary for April 07, 2022 Units:  English    Metric   Both
Daily Weekly Monthly Yearly Custom
  High: Low: Average:
Temperature: 76.0 °F 50.0 °F 64.1 °F
Dew Point: 42.0 °F 28.0 °F 35.9 °F
Humidity: 61% 20% 38%
Wind Speed: 27mph 0mph 10mph
Wind Gust: 28mph - -
Wind- - NW
Pressure: 30.3 in 30.1 in -
Precipitation: 0.000 in    
Historical Graphs
 
 
Tabular Data for April 07, 2022
Time Temperature Dew Point Pressure Wind Wind Speed Wind Gust Humidity Rainfall Rate (Hourly) solar
00:04 65.0 °F 42.0 °F 30.1 in NNW 7 mph 8 mph 44% 0.000 in 0.00 W/m2
00:09 64.0 °F 42.0 °F 30.1 in NNW 6 mph 7 mph 44% 0.000 in 0.00 W/m2
00:14 64.0 °F 42.0 °F 30.1 in NNW 9 mph 9 mph 44% 0.000 in 0.00 W/m2
00:19 64.0 °F 42.0 °F 30.1 in NNW 10 mph 12 mph 44% 0.000 in 0.00 W/m2
00:24 64.0 °F 42.0 °F 30.1 in North 9 mph 12 mph 44% 0.000 in 0.00 W/m2
00:29 64.0 °F 41.0 °F 30.1 in NNW 9 mph 9 mph 43% 0.000 in 0.00 W/m2
00:34 64.0 °F 41.0 °F 30.1 in North 9 mph 10 mph 43% 0.000 in 0.00 W/m2
00:39 64.0 °F 41.0 °F 30.1 in North 9 mph 10 mph 43% 0.000 in 0.00 W/m2
00:44 64.0 °F 41.0 °F 30.1 in North 6 mph 8 mph 43% 0.000 in 0.00 W/m2
00:49 63.0 °F 41.0 °F 30.1 in North 5 mph 5 mph 43% 0.000 in 0.00 W/m2
00:54 63.0 °F 40.0 °F 30.1 in NNW 7 mph 7 mph 43% 0.000 in 0.00 W/m2
00:59 63.0 °F 40.0 °F 30.1 in NW 6 mph 8 mph 43% 0.000 in 0.00 W/m2
01:04 63.0 °F 40.0 °F 30.1 in NW 5 mph 8 mph 43% 0.000 in 0.00 W/m2
01:09 63.0 °F 41.0 °F 30.1 in NNW 4 mph 6 mph 44% 0.000 in 0.00 W/m2
01:14 63.0 °F 41.0 °F 30.1 in NNW 5 mph 6 mph 44% 0.000 in 0.00 W/m2
01:19 62.0 °F 41.0 °F 30.1 in North 4 mph 5 mph 45% 0.000 in 0.00 W/m2
01:24 62.0 °F 41.0 °F 30.1 in North 3 mph 5 mph 45% 0.000 in 0.00 W/m2
01:29 62.0 °F 41.0 °F 30.1 in NNW 4 mph 5 mph 46% 0.000 in 0.00 W/m2
01:39 62.0 °F 41.0 °F 30.1 in NNW 3 mph 3 mph 47% 0.000 in 0.00 W/m2
01:44 62.0 °F 41.0 °F 30.1 in NW 6 mph 6 mph 47% 0.000 in 0.00 W/m2
01:49 61.0 °F 41.0 °F 30.1 in NNW 4 mph 5 mph 47% 0.000 in 0.00 W/m2
01:54 61.0 °F 41.0 °F 30.1 in NNW 4 mph 4 mph 47% 0.000 in 0.00 W/m2
01:59 61.0 °F 41.0 °F 30.1 in NNW 4 mph 4 mph 47% 0.000 in 0.00 W/m2
02:04 61.0 °F 40.0 °F 30.1 in NNW 4 mph 4 mph 47% 0.000 in 0.00 W/m2
02:09 61.0 °F 41.0 °F 30.1 in North 2 mph 3 mph 48% 0.000 in 0.00 W/m2
02:14 60.0 °F 41.0 °F 30.1 in North 3 mph 3 mph 48% 0.000 in 0.00 W/m2
02:19 60.0 °F 41.0 °F 30.1 in NW 4 mph 4 mph 48% 0.000 in 0.00 W/m2
02:24 60.0 °F 40.0 °F 30.1 in NW 4 mph 4 mph 48% 0.000 in 0.00 W/m2
02:29 60.0 °F 40.0 °F 30.1 in NW 4 mph 4 mph 48% 0.000 in 0.00 W/m2
02:34 60.0 °F 40.0 °F 30.1 in NW 3 mph 4 mph 48% 0.000 in 0.00 W/m2
02:39 59.0 °F 40.0 °F 30.1 in NW 3 mph 3 mph 48% 0.000 in 0.00 W/m2
02:44 59.0 °F 40.0 °F 30.1 in NW 5 mph 5 mph 48% 0.000 in 0.00 W/m2
02:49 59.0 °F 40.0 °F 30.1 in NW 4 mph 4 mph 49% 0.000 in 0.00 W/m2
02:54 59.0 °F 40.0 °F 30.1 in NW 3 mph 3 mph 49% 0.000 in 0.00 W/m2
02:59 59.0 °F 40.0 °F 30.1 in NW 4 mph 4 mph 49% 0.000 in 0.00 W/m2
03:04 59.0 °F 39.0 °F 30.1 in WNW 3 mph 4 mph 49% 0.000 in 0.00 W/m2
03:09 59.0 °F 39.0 °F 30.1 in NW 3 mph 3 mph 49% 0.000 in 0.00 W/m2
03:14 58.0 °F 40.0 °F 30.1 in NW 2 mph 3 mph 50% 0.000 in 0.00 W/m2
03:19 58.0 °F 40.0 °F 30.1 in NW 2 mph 3 mph 50% 0.000 in 0.00 W/m2
03:24 58.0 °F 39.0 °F 30.1 in NW 2 mph 2 mph 50% 0.000 in 0.00 W/m2
03:29 58.0 °F 40.0 °F 30.1 in NW 2 mph 2 mph 51% 0.000 in 0.00 W/m2
03:34 58.0 °F 40.0 °F 30.1 in NW 3 mph 4 mph 51% 0.000 in 0.00 W/m2
03:39 57.0 °F 39.0 °F 30.1 in NW 3 mph 3 mph 51% 0.000 in 0.00 W/m2
03:44 57.0 °F 39.0 °F 30.1 in NW 3 mph 3 mph 52% 0.000 in 0.00 W/m2
03:49 57.0 °F 39.0 °F 30.1 in NW 3 mph 3 mph 52% 0.000 in 0.00 W/m2
03:54 57.0 °F 39.0 °F 30.1 in NW 1 mph 1 mph 53% 0.000 in 0.00 W/m2
03:59 56.0 °F 39.0 °F 30.1 in West 3 mph 3 mph 53% 0.000 in 0.00 W/m2
04:04 56.0 °F 39.0 °F 30.1 in WNW 3 mph 3 mph 53% 0.000 in 0.00 W/m2
04:09 56.0 °F 39.0 °F 30.1 in NW 4 mph 5 mph 53% 0.000 in 0.00 W/m2
04:14 56.0 °F 38.0 °F 30.1 in NW 4 mph 4 mph 52% 0.000 in 0.00 W/m2
04:19 56.0 °F 38.0 °F 30.1 in NW 3 mph 4 mph 52% 0.000 in 0.00 W/m2
04:24 56.0 °F 38.0 °F 30.1 in NW 1 mph 2 mph 52% 0.000 in 0.00 W/m2
04:29 56.0 °F 38.0 °F 30.1 in NW 1 mph 2 mph 52% 0.000 in 0.00 W/m2
04:34 55.0 °F 38.0 °F 30.1 in NW 1 mph 2 mph 53% 0.000 in 0.00 W/m2
04:39 55.0 °F 38.0 °F 30.1 in NW 2 mph 2 mph 53% 0.000 in 0.00 W/m2
04:44 55.0 °F 38.0 °F 30.1 in NW 2 mph 2 mph 54% 0.000 in 0.00 W/m2
04:49 54.0 °F 38.0 °F 30.1 in NW 2 mph 2 mph 54% 0.000 in 0.00 W/m2
04:59 54.0 °F 38.0 °F 30.1 in NW 1 mph 1 mph 56% 0.000 in 0.00 W/m2
05:04 53.0 °F 38.0 °F 30.1 in NW 1 mph 1 mph 56% 0.000 in 0.00 W/m2
05:09 53.0 °F 38.0 °F 30.1 in NW 1 mph 2 mph 58% 0.000 in 0.00 W/m2
05:14 53.0 °F 38.0 °F 30.1 in NW 1 mph 2 mph 58% 0.000 in 0.00 W/m2
05:19 52.0 °F 39.0 °F 30.1 in NW 1 mph 2 mph 59% 0.000 in 0.00 W/m2
05:24 52.0 °F 38.0 °F 30.1 in NW 1 mph 2 mph 60% 0.000 in 0.00 W/m2
05:29 52.0 °F 38.0 °F 30.1 in NW 2 mph 3 mph 60% 0.000 in 0.00 W/m2
05:34 52.0 °F 38.0 °F 30.1 in NW 2 mph 2 mph 60% 0.000 in 0.00 W/m2
05:39 51.0 °F 38.0 °F 30.1 in NW 2 mph 2 mph 60% 0.000 in 0.00 W/m2
05:44 51.0 °F 38.0 °F 30.1 in NW 2 mph 2 mph 60% 0.000 in 0.00 W/m2
05:49 51.0 °F 38.0 °F 30.1 in NW 1 mph 1 mph 60% 0.000 in 0.00 W/m2
05:54 51.0 °F 37.0 °F 30.1 in NW 1 mph 1 mph 60% 0.000 in 0.00 W/m2
05:59 51.0 °F 38.0 °F 30.1 in NW 2 mph 2 mph 61% 0.000 in 0.00 W/m2
06:04 51.0 °F 38.0 °F 30.1 in NW 2 mph 2 mph 61% 0.000 in 0.00 W/m2
06:09 50.0 °F 37.0 °F 30.1 in NW 2 mph 2 mph 61% 0.000 in 0.00 W/m2
06:14 50.0 °F 37.0 °F 30.2 in NW 3 mph 3 mph 61% 0.000 in 0.00 W/m2
06:19 50.0 °F 37.0 °F 30.2 in WNW 2 mph 3 mph 61% 0.000 in 0.00 W/m2
06:24 50.0 °F 37.0 °F 30.2 in WNW 3 mph 3 mph 61% 0.000 in 0.00 W/m2
06:29 50.0 °F 37.0 °F 30.2 in WNW 4 mph 4 mph 61% 0.000 in 0.00 W/m2
06:34 50.0 °F 37.0 °F 30.2 in WNW 3 mph 3 mph 61% 0.000 in 0.00 W/m2
06:39 50.0 °F 37.0 °F 30.2 in WNW 5 mph 5 mph 60% 0.000 in 0.00 W/m2
06:44 50.0 °F 37.0 °F 30.2 in WNW 4 mph 4 mph 60% 0.000 in 0.00 W/m2
06:49 50.0 °F 37.0 °F 30.2 in West 7 mph 7 mph 60% 0.000 in 0.00 W/m2
06:54 50.0 °F 37.0 °F 30.2 in NW 3 mph 7 mph 60% 0.000 in 0.00 W/m2
06:59 51.0 °F 37.0 °F 30.2 in WNW 4 mph 7 mph 60% 0.000 in 0.00 W/m2
07:04 51.0 °F 37.0 °F 30.2 in West 4 mph 4 mph 59% 0.000 in 0.00 W/m2
07:09 51.0 °F 37.0 °F 30.2 in WNW 3 mph 4 mph 59% 0.000 in 5.00 W/m2
07:14 51.0 °F 37.0 °F 30.2 in NW 4 mph 4 mph 59% 0.000 in 9.00 W/m2
07:19 51.0 °F 37.0 °F 30.2 in NW 7 mph 8 mph 58% 0.000 in 14.00 W/m2
07:24 51.0 °F 36.0 °F 30.2 in NW 6 mph 7 mph 57% 0.000 in 19.00 W/m2
07:29 51.0 °F 36.0 °F 30.2 in NW 8 mph 9 mph 57% 0.000 in 23.00 W/m2
07:34 52.0 °F 36.0 °F 30.2 in NW 8 mph 10 mph 55% 0.000 in 28.00 W/m2
07:39 52.0 °F 36.0 °F 30.2 in NW 6 mph 9 mph 54% 0.000 in 32.00 W/m2
07:44 53.0 °F 36.0 °F 30.2 in NNW 8 mph 9 mph 54% 0.000 in 35.00 W/m2
07:49 53.0 °F 37.0 °F 30.2 in NW 7 mph 8 mph 54% 0.000 in 40.00 W/m2
07:54 53.0 °F 36.0 °F 30.2 in NW 10 mph 10 mph 53% 0.000 in 46.00 W/m2
07:59 53.0 °F 36.0 °F 30.2 in NW 7 mph 10 mph 53% 0.000 in 51.00 W/m2
08:04 53.0 °F 37.0 °F 30.2 in NW 11 mph 12 mph 53% 0.000 in 58.00 W/m2
08:09 54.0 °F 37.0 °F 30.2 in NW 10 mph 12 mph 52% 0.000 in 70.00 W/m2
08:14 54.0 °F 37.0 °F 30.2 in NW 8 mph 9 mph 52% 0.000 in 81.00 W/m2
08:19 54.0 °F 37.0 °F 30.2 in NW 8 mph 9 mph 51% 0.000 in 100.00 W/m2
08:24 55.0 °F 37.0 °F 30.2 in NW 9 mph 9 mph 51% 0.000 in 116.00 W/m2
08:29 55.0 °F 37.0 °F 30.2 in NW 10 mph 10 mph 51% 0.000 in 118.00 W/m2
08:34 56.0 °F 37.0 °F 30.2 in NW 10 mph 10 mph 51% 0.000 in 149.00 W/m2
08:39 56.0 °F 38.0 °F 30.2 in NNW 8 mph 9 mph 50% 0.000 in 185.00 W/m2
08:44 57.0 °F 38.0 °F 30.2 in NW 8 mph 9 mph 50% 0.000 in 221.00 W/m2
08:49 57.0 °F 38.0 °F 30.2 in NW 10 mph 11 mph 49% 0.000 in 246.00 W/m2
08:54 58.0 °F 39.0 °F 30.2 in NNW 9 mph 9 mph 49% 0.000 in 274.00 W/m2
08:59 58.0 °F 39.0 °F 30.2 in NW 10 mph 11 mph 49% 0.000 in 304.00 W/m2
09:04 59.0 °F 39.0 °F 30.2 in NW 8 mph 11 mph 48% 0.000 in 336.00 W/m2
09:09 59.0 °F 39.0 °F 30.3 in NW 11 mph 11 mph 47% 0.000 in 369.00 W/m2
09:14 60.0 °F 39.0 °F 30.3 in NW 11 mph 15 mph 47% 0.000 in 396.00 W/m2
09:19 60.0 °F 39.0 °F 30.3 in NNW 14 mph 15 mph 46% 0.000 in 420.00 W/m2
09:24 61.0 °F 39.0 °F 30.3 in NNW 11 mph 11 mph 45% 0.000 in 441.00 W/m2
09:29 61.0 °F 39.0 °F 30.3 in NNW 14 mph 14 mph 44% 0.000 in 459.00 W/m2
09:34 62.0 °F 39.0 °F 30.3 in NW 11 mph 11 mph 44% 0.000 in 475.00 W/m2
09:44 63.0 °F 39.0 °F 30.3 in North 14 mph 14 mph 43% 0.000 in 510.00 W/m2
09:49 63.0 °F 40.0 °F 30.3 in NNW 11 mph 13 mph 42% 0.000 in 531.00 W/m2
09:54 64.0 °F 39.0 °F 30.3 in NNW 14 mph 14 mph 40% 0.000 in 547.00 W/m2
09:59 64.0 °F 39.0 °F 30.3 in NNW 12 mph 14 mph 39% 0.000 in 563.00 W/m2
10:04 64.0 °F 39.0 °F 30.3 in North 12 mph 14 mph 39% 0.000 in 582.00 W/m2
10:09 65.0 °F 39.0 °F 30.3 in NW 13 mph 15 mph 38% 0.000 in 599.00 W/m2
10:14 65.0 °F 38.0 °F 30.3 in NNW 16 mph 16 mph 37% 0.000 in 619.00 W/m2
10:19 65.0 °F 38.0 °F 30.3 in NNW 19 mph 21 mph 37% 0.000 in 635.00 W/m2
10:24 65.0 °F 38.0 °F 30.3 in NNW 15 mph 17 mph 37% 0.000 in 647.00 W/m2
10:29 66.0 °F 38.0 °F 30.3 in NNW 16 mph 18 mph 36% 0.000 in 661.00 W/m2
10:34 66.0 °F 39.0 °F 30.3 in North 17 mph 19 mph 37% 0.000 in 680.00 W/m2
10:39 66.0 °F 38.0 °F 30.3 in North 13 mph 19 mph 36% 0.000 in 693.00 W/m2
10:44 67.0 °F 40.0 °F 30.3 in NW 22 mph 23 mph 37% 0.000 in 712.00 W/m2
10:49 67.0 °F 37.0 °F 30.3 in NNW 15 mph 18 mph 34% 0.000 in 726.00 W/m2
10:54 67.0 °F 38.0 °F 30.3 in NNW 20 mph 20 mph 35% 0.000 in 738.00 W/m2
10:59 67.0 °F 38.0 °F 30.3 in NNW 21 mph 21 mph 35% 0.000 in 749.00 W/m2
11:04 67.0 °F 38.0 °F 30.3 in NNW 18 mph 18 mph 35% 0.000 in 765.00 W/m2
11:09 67.0 °F 38.0 °F 30.3 in NNW 17 mph 18 mph 35% 0.000 in 780.00 W/m2
11:14 67.0 °F 38.0 °F 30.3 in NNW 23 mph 23 mph 34% 0.000 in 791.00 W/m2
11:19 68.0 °F 38.0 °F 30.3 in NNW 20 mph 20 mph 34% 0.000 in 803.00 W/m2
11:24 68.0 °F 38.0 °F 30.3 in NNW 21 mph 21 mph 34% 0.000 in 816.00 W/m2
11:29 68.0 °F 38.0 °F 30.3 in NNW 20 mph 21 mph 34% 0.000 in 830.00 W/m2
11:34 68.0 °F 38.0 °F 30.3 in North 25 mph 25 mph 33% 0.000 in 838.00 W/m2
11:39 68.0 °F 38.0 °F 30.3 in NNW 16 mph 19 mph 33% 0.000 in 846.00 W/m2
11:44 69.0 °F 39.0 °F 30.3 in North 19 mph 19 mph 34% 0.000 in 860.00 W/m2
11:49 69.0 °F 39.0 °F 30.3 in NNW 15 mph 16 mph 34% 0.000 in 868.00 W/m2
11:54 69.0 °F 40.0 °F 30.3 in NNW 15 mph 15 mph 34% 0.000 in 877.00 W/m2
11:59 69.0 °F 40.0 °F 30.2 in NW 14 mph 14 mph 34% 0.000 in 886.00 W/m2
12:04 70.0 °F 41.0 °F 30.2 in NNW 17 mph 17 mph 35% 0.000 in 900.00 W/m2
12:06 70.0 °F 39.0 °F 30.2 in North 16 mph 17 mph 33% 0.000 in 902.00 W/m2
12:14 71.0 °F 41.0 °F 30.2 in NNW 15 mph 15 mph 34% 0.000 in 914.00 W/m2
12:19 71.0 °F 38.0 °F 30.2 in NW 17 mph 18 mph 30% 0.000 in 919.00 W/m2
12:24 71.0 °F 38.0 °F 30.2 in NW 16 mph 18 mph 30% 0.000 in 928.00 W/m2
12:29 71.0 °F 37.0 °F 30.2 in NNW 16 mph 16 mph 29% 0.000 in 926.00 W/m2
12:34 71.0 °F 37.0 °F 30.2 in NNW 19 mph 21 mph 29% 0.000 in 939.00 W/m2
12:39 72.0 °F 39.0 °F 30.2 in NW 17 mph 21 mph 30% 0.000 in 939.00 W/m2
12:44 72.0 °F 37.0 °F 30.2 in NNW 19 mph 19 mph 28% 0.000 in 944.00 W/m2
12:49 72.0 °F 39.0 °F 30.2 in NNW 14 mph 15 mph 30% 0.000 in 944.00 W/m2
12:54 72.0 °F 38.0 °F 30.2 in NNW 16 mph 18 mph 29% 0.000 in 946.00 W/m2
12:56 72.0 °F 37.0 °F 30.2 in NW 16 mph 18 mph 28% 0.000 in 956.00 W/m2
13:04 73.0 °F 38.0 °F 30.2 in NNW 20 mph 20 mph 28% 0.000 in 962.00 W/m2
13:09 73.0 °F 35.0 °F 30.2 in NNW 18 mph 20 mph 25% 0.000 in 967.00 W/m2
13:14 73.0 °F 35.0 °F 30.2 in NW 17 mph 17 mph 25% 0.000 in 969.00 W/m2
13:19 73.0 °F 36.0 °F 30.2 in NNW 17 mph 19 mph 26% 0.000 in 967.00 W/m2
13:24 73.0 °F 34.0 °F 30.2 in NW 20 mph 20 mph 24% 0.000 in 969.00 W/m2
13:29 73.0 °F 36.0 °F 30.2 in North 24 mph 26 mph 26% 0.000 in 969.00 W/m2
13:34 73.0 °F 36.0 °F 30.2 in NNW 17 mph 20 mph 26% 0.000 in 962.00 W/m2
13:39 74.0 °F 37.0 °F 30.2 in North 20 mph 22 mph 26% 0.000 in 962.00 W/m2
13:44 74.0 °F 37.0 °F 30.2 in NW 16 mph 18 mph 26% 0.000 in 960.00 W/m2
13:49 74.0 °F 35.0 °F 30.2 in NW 16 mph 18 mph 24% 0.000 in 962.00 W/m2
13:54 74.0 °F 36.0 °F 30.2 in NW 17 mph 20 mph 25% 0.000 in 958.00 W/m2
13:59 74.0 °F 34.0 °F 30.2 in NW 19 mph 20 mph 23% 0.000 in 954.00 W/m2
14:04 75.0 °F 35.0 °F 30.2 in NNW 15 mph 17 mph 24% 0.000 in 954.00 W/m2
14:09 75.0 °F 34.0 °F 30.2 in NW 21 mph 22 mph 23% 0.000 in 951.00 W/m2
14:14 74.0 °F 34.0 °F 30.2 in NNW 17 mph 17 mph 23% 0.000 in 946.00 W/m2
14:19 74.0 °F 35.0 °F 30.2 in NNW 17 mph 18 mph 24% 0.000 in 937.00 W/m2
14:24 74.0 °F 35.0 °F 30.2 in NW 17 mph 21 mph 24% 0.000 in 933.00 W/m2
14:29 75.0 °F 35.0 °F 30.2 in NW 19 mph 19 mph 24% 0.000 in 928.00 W/m2
14:34 75.0 °F 34.0 °F 30.2 in NNW 17 mph 17 mph 23% 0.000 in 925.00 W/m2
14:39 75.0 °F 35.0 °F 30.2 in NNW 19 mph 22 mph 23% 0.000 in 918.00 W/m2
14:44 75.0 °F 34.0 °F 30.2 in NNW 22 mph 22 mph 23% 0.000 in 912.00 W/m2
14:49 75.0 °F 35.0 °F 30.2 in NNW 19 mph 22 mph 24% 0.000 in 907.00 W/m2
14:54 75.0 °F 35.0 °F 30.2 in NW 14 mph 15 mph 24% 0.000 in 895.00 W/m2
14:59 75.0 °F 35.0 °F 30.2 in NW 16 mph 22 mph 24% 0.000 in 888.00 W/m2
15:04 75.0 °F 35.0 °F 30.2 in NW 22 mph 25 mph 23% 0.000 in 877.00 W/m2
15:09 75.0 °F 33.0 °F 30.2 in NNW 27 mph 27 mph 22% 0.000 in 867.00 W/m2
15:14 75.0 °F 33.0 °F 30.2 in NW 16 mph 19 mph 22% 0.000 in 860.00 W/m2
15:19 75.0 °F 33.0 °F 30.2 in NNW 19 mph 20 mph 22% 0.000 in 849.00 W/m2
15:24 74.0 °F 34.0 °F 30.2 in NNW 17 mph 17 mph 23% 0.000 in 837.00 W/m2
15:29 75.0 °F 35.0 °F 30.2 in NW 19 mph 20 mph 24% 0.000 in 826.00 W/m2
15:34 75.0 °F 35.0 °F 30.2 in NNW 16 mph 20 mph 24% 0.000 in 812.00 W/m2
15:39 75.0 °F 35.0 °F 30.2 in WNW 23 mph 24 mph 24% 0.000 in 802.00 W/m2
15:44 75.0 °F 35.0 °F 30.2 in NNW 19 mph 19 mph 24% 0.000 in 784.00 W/m2
15:49 75.0 °F 37.0 °F 30.2 in NNW 18 mph 19 mph 25% 0.000 in 772.00 W/m2
15:54 75.0 °F 37.0 °F 30.2 in NW 14 mph 14 mph 25% 0.000 in 759.00 W/m2
15:59 76.0 °F 37.0 °F 30.2 in NW 16 mph 17 mph 25% 0.000 in 745.00 W/m2
16:04 76.0 °F 35.0 °F 30.2 in WNW 16 mph 20 mph 23% 0.000 in 735.00 W/m2
16:09 75.0 °F 35.0 °F 30.2 in NW 22 mph 28 mph 23% 0.000 in 722.00 W/m2
16:14 75.0 °F 33.0 °F 30.2 in NW 27 mph 27 mph 22% 0.000 in 705.00 W/m2
16:19 75.0 °F 33.0 °F 30.1 in WNW 22 mph 22 mph 22% 0.000 in 691.00 W/m2
16:24 75.0 °F 33.0 °F 30.1 in NW 19 mph 22 mph 22% 0.000 in 675.00 W/m2
16:29 75.0 °F 36.0 °F 30.1 in NW 16 mph 19 mph 24% 0.000 in 659.00 W/m2
16:34 75.0 °F 36.0 °F 30.1 in WNW 16 mph 17 mph 24% 0.000 in 645.00 W/m2
16:39 75.0 °F 35.0 °F 30.1 in NW 19 mph 19 mph 23% 0.000 in 628.00 W/m2
16:44 75.0 °F 36.0 °F 30.1 in NW 16 mph 16 mph 24% 0.000 in 608.00 W/m2
16:49 75.0 °F 36.0 °F 30.1 in NW 22 mph 22 mph 24% 0.000 in 596.00 W/m2
16:54 75.0 °F 35.0 °F 30.1 in NNW 17 mph 22 mph 23% 0.000 in 577.00 W/m2
16:59 75.0 °F 34.0 °F 30.1 in NW 21 mph 21 mph 23% 0.000 in 557.00 W/m2
17:04 75.0 °F 34.0 °F 30.1 in NNW 18 mph 25 mph 23% 0.000 in 543.00 W/m2
17:09 75.0 °F 33.0 °F 30.1 in NNW 16 mph 25 mph 22% 0.000 in 522.00 W/m2
17:14 75.0 °F 33.0 °F 30.1 in NNW 16 mph 20 mph 22% 0.000 in 510.00 W/m2
17:19 75.0 °F 33.0 °F 30.1 in NNW 17 mph 20 mph 22% 0.000 in 487.00 W/m2
17:24 75.0 °F 33.0 °F 30.1 in NW 21 mph 21 mph 22% 0.000 in 473.00 W/m2
17:29 74.0 °F 32.0 °F 30.1 in NNW 21 mph 22 mph 21% 0.000 in 457.00 W/m2
17:34 74.0 °F 33.0 °F 30.1 in NW 12 mph 19 mph 22% 0.000 in 441.00 W/m2
17:39 74.0 °F 33.0 °F 30.1 in NNW 20 mph 20 mph 22% 0.000 in 420.00 W/m2
17:44 75.0 °F 32.0 °F 30.1 in NW 18 mph 19 mph 21% 0.000 in 406.00 W/m2
17:49 74.0 °F 32.0 °F 30.1 in NW 18 mph 22 mph 21% 0.000 in 385.00 W/m2
17:54 74.0 °F 30.0 °F 30.1 in NW 18 mph 20 mph 20% 0.000 in 366.00 W/m2
17:59 74.0 °F 32.0 °F 30.1 in NW 22 mph 22 mph 21% 0.000 in 348.00 W/m2
18:04 74.0 °F 31.0 °F 30.1 in NW 19 mph 20 mph 21% 0.000 in 329.00 W/m2
18:09 74.0 °F 31.0 °F 30.1 in NW 16 mph 18 mph 21% 0.000 in 309.00 W/m2
18:14 73.0 °F 31.0 °F 30.1 in NW 17 mph 18 mph 21% 0.000 in 288.00 W/m2
18:19 73.0 °F 30.0 °F 30.1 in WNW 16 mph 20 mph 20% 0.000 in 272.00 W/m2
18:24 73.0 °F 31.0 °F 30.1 in NW 15 mph 17 mph 21% 0.000 in 257.00 W/m2
18:29 73.0 °F 31.0 °F 30.1 in NW 25 mph 25 mph 21% 0.000 in 234.00 W/m2
18:34 73.0 °F 30.0 °F 30.1 in NW 23 mph 25 mph 20% 0.000 in 214.00 W/m2
18:39 73.0 °F 29.0 °F 30.1 in NW 15 mph 18 mph 20% 0.000 in 195.00 W/m2
18:44 72.0 °F 29.0 °F 30.1 in NW 16 mph 19 mph 20% 0.000 in 169.00 W/m2
18:49 72.0 °F 30.0 °F 30.1 in NW 13 mph 16 mph 21% 0.000 in 69.00 W/m2
18:54 72.0 °F 30.0 °F 30.1 in NNW 13 mph 13 mph 21% 0.000 in 37.00 W/m2
18:59 71.0 °F 30.0 °F 30.1 in NW 15 mph 15 mph 21% 0.000 in 33.00 W/m2
19:04 71.0 °F 30.0 °F 30.1 in NW 14 mph 20 mph 22% 0.000 in 30.00 W/m2
19:09 71.0 °F 29.0 °F 30.1 in NW 15 mph 20 mph 21% 0.000 in 28.00 W/m2
19:14 71.0 °F 30.0 °F 30.2 in NNW 13 mph 18 mph 22% 0.000 in 25.00 W/m2
19:19 71.0 °F 30.0 °F 30.2 in NNW 14 mph 18 mph 22% 0.000 in 21.00 W/m2
19:24 70.0 °F 30.0 °F 30.2 in NW 13 mph 13 mph 22% 0.000 in 19.00 W/m2
19:29 70.0 °F 28.0 °F 30.2 in NNW 15 mph 15 mph 21% 0.000 in 16.00 W/m2
19:34 70.0 °F 28.0 °F 30.2 in NNW 18 mph 18 mph 21% 0.000 in 12.00 W/m2
19:39 70.0 °F 29.0 °F 30.2 in NW 15 mph 18 mph 22% 0.000 in 9.00 W/m2
19:44 69.0 °F 30.0 °F 30.2 in NW 10 mph 15 mph 23% 0.000 in 5.00 W/m2
19:49 69.0 °F 30.0 °F 30.2 in NNW 11 mph 11 mph 23% 0.000 in 0.00 W/m2
19:54 69.0 °F 30.0 °F 30.2 in NW 11 mph 14 mph 24% 0.000 in 0.00 W/m2
19:59 69.0 °F 30.0 °F 30.2 in NNW 11 mph 12 mph 24% 0.000 in 0.00 W/m2
20:04 68.0 °F 30.0 °F 30.2 in NNW 11 mph 14 mph 24% 0.000 in 0.00 W/m2
20:09 68.0 °F 30.0 °F 30.2 in NNW 12 mph 12 mph 24% 0.000 in 0.00 W/m2
20:14 68.0 °F 30.0 °F 30.2 in NW 12 mph 12 mph 24% 0.000 in 0.00 W/m2
20:19 68.0 °F 30.0 °F 30.2 in NW 9 mph 10 mph 25% 0.000 in 0.00 W/m2
20:24 67.0 °F 30.0 °F 30.2 in NW 7 mph 9 mph 25% 0.000 in 0.00 W/m2
20:29 67.0 °F 30.0 °F 30.2 in NW 9 mph 10 mph 25% 0.000 in 0.00 W/m2
20:34 67.0 °F 30.0 °F 30.2 in NW 6 mph 7 mph 25% 0.000 in 0.00 W/m2
20:39 67.0 °F 31.0 °F 30.2 in NNW 4 mph 6 mph 26% 0.000 in 0.00 W/m2
20:44 67.0 °F 30.0 °F 30.2 in NNW 6 mph 6 mph 26% 0.000 in 0.00 W/m2
20:49 66.0 °F 30.0 °F 30.2 in NW 5 mph 6 mph 26% 0.000 in 0.00 W/m2
20:54 66.0 °F 30.0 °F 30.2 in NW 6 mph 6 mph 26% 0.000 in 0.00 W/m2
20:59 66.0 °F 30.0 °F 30.2 in NW 5 mph 6 mph 26% 0.000 in 0.00 W/m2
21:04 66.0 °F 31.0 °F 30.2 in NW 6 mph 6 mph 27% 0.000 in 0.00 W/m2
21:09 65.0 °F 30.0 °F 30.2 in NW 4 mph 5 mph 27% 0.000 in 0.00 W/m2
21:14 65.0 °F 30.0 °F 30.2 in NW 5 mph 5 mph 27% 0.000 in 0.00 W/m2
21:19 65.0 °F 30.0 °F 30.2 in NW 4 mph 4 mph 27% 0.000 in 0.00 W/m2
21:24 65.0 °F 31.0 °F 30.2 in NW 4 mph 5 mph 28% 0.000 in 0.00 W/m2
21:29 65.0 °F 31.0 °F 30.2 in NW 4 mph 5 mph 28% 0.000 in 0.00 W/m2
21:34 64.0 °F 30.0 °F 30.2 in WNW 4 mph 5 mph 28% 0.000 in 0.00 W/m2
21:39 64.0 °F 30.0 °F 30.2 in NW 2 mph 3 mph 28% 0.000 in 0.00 W/m2
21:44 64.0 °F 31.0 °F 30.2 in WNW 3 mph 3 mph 29% 0.000 in 0.00 W/m2
21:49 64.0 °F 31.0 °F 30.2 in WNW 4 mph 5 mph 29% 0.000 in 0.00 W/m2
21:54 63.0 °F 31.0 °F 30.2 in West 3 mph 3 mph 29% 0.000 in 0.00 W/m2
21:59 63.0 °F 31.0 °F 30.2 in West 1 mph 1 mph 30% 0.000 in 0.00 W/m2
22:04 63.0 °F 31.0 °F 30.2 in West 2 mph 2 mph 30% 0.000 in 0.00 W/m2
22:09 62.0 °F 31.0 °F 30.2 in West 1 mph 1 mph 31% 0.000 in 0.00 W/m2
22:14 62.0 °F 31.0 °F 30.2 in West 1 mph 1 mph 31% 0.000 in 0.00 W/m2
22:19 62.0 °F 31.0 °F 30.2 in West 1 mph 1 mph 32% 0.000 in 0.00 W/m2
22:24 61.0 °F 32.0 °F 30.2 in West 1 mph 1 mph 33% 0.000 in 0.00 W/m2
22:29 60.0 °F 32.0 °F 30.2 in West 1 mph 2 mph 34% 0.000 in 0.00 W/m2
22:34 60.0 °F 32.0 °F 30.2 in West 1 mph 1 mph 35% 0.000 in 0.00 W/m2
22:39 60.0 °F 32.0 °F 30.2 in West 1 mph 1 mph 35% 0.000 in 0.00 W/m2
22:44 59.0 °F 33.0 °F 30.2 in Calm   1 mph 37% 0.000 in 0.00 W/m2
22:49 59.0 °F 33.0 °F 30.2 in West 1 mph 1 mph 37% 0.000 in 0.00 W/m2
22:54 59.0 °F 33.0 °F 30.2 in West 1 mph 1 mph 38% 0.000 in 0.00 W/m2
22:59 58.0 °F 33.0 °F 30.2 in Calm     39% 0.000 in 0.00 W/m2
23:04 58.0 °F 33.0 °F 30.2 in Calm     40% 0.000 in 0.00 W/m2
23:09 57.0 °F 33.0 °F 30.2 in Calm     40% 0.000 in 0.00 W/m2
23:14 57.0 °F 33.0 °F 30.2 in Calm     40% 0.000 in 0.00 W/m2
23:19 57.0 °F 33.0 °F 30.2 in Calm     41% 0.000 in 0.00 W/m2
23:24 56.0 °F 33.0 °F 30.2 in Calm   1 mph 42% 0.000 in 0.00 W/m2
23:29 56.0 °F 33.0 °F 30.2 in West 1 mph 1 mph 42% 0.000 in 0.00 W/m2
23:34 55.0 °F 34.0 °F 30.2 in West 1 mph 1 mph 44% 0.000 in 0.00 W/m2
23:39 55.0 °F 34.0 °F 30.2 in West 1 mph 1 mph 45% 0.000 in 0.00 W/m2
23:44 55.0 °F 34.0 °F 30.2 in West 1 mph 1 mph 45% 0.000 in 0.00 W/m2
23:49 55.0 °F 34.0 °F 30.2 in West 1 mph 1 mph 46% 0.000 in 0.00 W/m2
23:54 54.0 °F 34.0 °F 30.2 in West 1 mph 2 mph 47% 0.000 in 0.00 W/m2
23:59 54.0 °F 34.0 °F 30.2 in West 1 mph 1 mph 47% 0.000 in 0.00 W/m2
Villages of Bridgestone, Spring, TX USA
Compliments of Weather Underground - 4 mb